sensor_id;sensor_type;location;lat;lon;timestamp;P1;durP1;ratioP1;P2;durP2;ratioP2
23410;SDS011;11878;51.774;7.220;2023-05-25T00:01:28;12.20;;;3.07;;
23410;SDS011;11878;51.774;7.220;2023-05-25T00:04:31;4.87;;;2.10;;
23410;SDS011;11878;51.774;7.220;2023-05-25T00:07:35;7.20;;;3.00;;
23410;SDS011;11878;51.774;7.220;2023-05-25T00:10:36;13.93;;;2.63;;
23410;SDS011;11878;51.774;7.220;2023-05-25T00:13:38;10.03;;;2.90;;
23410;SDS011;11878;51.774;7.220;2023-05-25T00:16:40;8.20;;;2.80;;
23410;SDS011;11878;51.774;7.220;2023-05-25T00:19:42;8.13;;;2.77;;
23410;SDS011;11878;51.774;7.220;2023-05-25T00:22:44;7.27;;;2.67;;
23410;SDS011;11878;51.774;7.220;2023-05-25T00:25:46;6.07;;;2.43;;
23410;SDS011;11878;51.774;7.220;2023-05-25T00:28:48;7.53;;;2.97;;
23410;SDS011;11878;51.774;7.220;2023-05-25T00:31:49;6.23;;;2.43;;
23410;SDS011;11878;51.774;7.220;2023-05-25T00:34:52;7.10;;;2.83;;
23410;SDS011;11878;51.774;7.220;2023-05-25T00:41:29;15.30;;;2.90;;
23410;SDS011;11878;51.774;7.220;2023-05-25T00:44:33;7.23;;;2.57;;
23410;SDS011;11878;51.774;7.220;2023-05-25T00:47:35;11.60;;;2.90;;
23410;SDS011;11878;51.774;7.220;2023-05-25T00:50:38;8.60;;;2.50;;
23410;SDS011;11878;51.774;7.220;2023-05-25T00:53:42;10.87;;;2.67;;
23410;SDS011;11878;51.774;7.220;2023-05-25T00:56:49;8.00;;;3.20;;
23410;SDS011;11878;51.774;7.220;2023-05-25T00:59:56;7.30;;;2.50;;
23410;SDS011;11878;51.774;7.220;2023-05-25T01:03:00;10.83;;;2.57;;
23410;SDS011;11878;51.774;7.220;2023-05-25T01:06:13;9.30;;;2.60;;
23410;SDS011;11878;51.774;7.220;2023-05-25T01:09:17;7.07;;;2.47;;
23410;SDS011;11878;51.774;7.220;2023-05-25T01:12:22;7.53;;;2.83;;
23410;SDS011;11878;51.774;7.220;2023-05-25T01:15:27;6.53;;;2.47;;
23410;SDS011;11878;51.774;7.220;2023-05-25T01:18:31;11.10;;;3.23;;
23410;SDS011;11878;51.774;7.220;2023-05-25T01:21:35;8.97;;;2.30;;
23410;SDS011;11878;51.774;7.220;2023-05-25T01:25:00;7.20;;;2.77;;
23410;SDS011;11878;51.774;7.220;2023-05-25T01:28:09;10.27;;;3.03;;
23410;SDS011;11878;51.774;7.220;2023-05-25T01:31:19;12.97;;;3.43;;
23410;SDS011;11878;51.774;7.220;2023-05-25T01:34:22;11.37;;;3.20;;
23410;SDS011;11878;51.774;7.220;2023-05-25T01:37:26;12.40;;;3.13;;
23410;SDS011;11878;51.774;7.220;2023-05-25T01:40:30;7.60;;;3.10;;
23410;SDS011;11878;51.774;7.220;2023-05-25T01:43:34;9.30;;;3.20;;
23410;SDS011;11878;51.774;7.220;2023-05-25T01:46:37;10.27;;;2.93;;
23410;SDS011;11878;51.774;7.220;2023-05-25T01:49:45;6.63;;;3.20;;
23410;SDS011;11878;51.774;7.220;2023-05-25T01:53:01;8.50;;;3.13;;
23410;SDS011;11878;51.774;7.220;2023-05-25T01:56:05;8.93;;;2.90;;
23410;SDS011;11878;51.774;7.220;2023-05-25T01:59:09;12.40;;;3.27;;
23410;SDS011;11878;51.774;7.220;2023-05-25T02:26:49;8.10;;;2.50;;
23410;SDS011;11878;51.774;7.220;2023-05-25T02:29:52;5.50;;;2.33;;
23410;SDS011;11878;51.774;7.220;2023-05-25T02:32:54;11.87;;;3.43;;
23410;SDS011;11878;51.774;7.220;2023-05-25T02:35:56;11.53;;;3.57;;
23410;SDS011;11878;51.774;7.220;2023-05-25T02:39:00;10.20;;;2.97;;
23410;SDS011;11878;51.774;7.220;2023-05-25T02:42:02;9.20;;;3.43;;
23410;SDS011;11878;51.774;7.220;2023-05-25T02:45:04;6.87;;;3.03;;
23410;SDS011;11878;51.774;7.220;2023-05-25T02:48:12;8.30;;;3.07;;
23410;SDS011;11878;51.774;7.220;2023-05-25T02:54:46;13.10;;;3.23;;
23410;SDS011;11878;51.774;7.220;2023-05-25T02:57:54;7.80;;;3.40;;
23410;SDS011;11878;51.774;7.220;2023-05-25T03:01:15;11.47;;;3.57;;
23410;SDS011;11878;51.774;7.220;2023-05-25T03:04:28;14.97;;;3.93;;
23410;SDS011;11878;51.774;7.220;2023-05-25T03:07:32;6.70;;;3.67;;
23410;SDS011;11878;51.774;7.220;2023-05-25T03:10:34;9.13;;;3.07;;
23410;SDS011;11878;51.774;7.220;2023-05-25T03:13:35;14.13;;;4.10;;
23410;SDS011;11878;51.774;7.220;2023-05-25T03:16:38;7.90;;;3.43;;
23410;SDS011;11878;51.774;7.220;2023-05-25T03:19:40;12.70;;;3.00;;
23410;SDS011;11878;51.774;7.220;2023-05-25T03:22:43;9.50;;;3.37;;
23410;SDS011;11878;51.774;7.220;2023-05-25T03:25:45;14.03;;;3.43;;
23410;SDS011;11878;51.774;7.220;2023-05-25T03:28:47;8.60;;;3.20;;
23410;SDS011;11878;51.774;7.220;2023-05-25T03:31:49;9.73;;;4.07;;
23410;SDS011;11878;51.774;7.220;2023-05-25T03:34:52;12.93;;;3.77;;
23410;SDS011;11878;51.774;7.220;2023-05-25T03:41:25;8.37;;;3.47;;
23410;SDS011;11878;51.774;7.220;2023-05-25T03:55:06;9.73;;;3.17;;
23410;SDS011;11878;51.774;7.220;2023-05-25T04:05:05;11.70;;;3.87;;
23410;SDS011;11878;51.774;7.220;2023-05-25T04:08:07;7.60;;;3.27;;
23410;SDS011;11878;51.774;7.220;2023-05-25T04:11:10;6.70;;;2.83;;
23410;SDS011;11878;51.774;7.220;2023-05-25T04:14:12;8.20;;;3.37;;
23410;SDS011;11878;51.774;7.220;2023-05-25T04:20:46;9.43;;;3.60;;
23410;SDS011;11878;51.774;7.220;2023-05-25T04:27:20;13.60;;;3.43;;
23410;SDS011;11878;51.774;7.220;2023-05-25T04:34:00;13.90;;;3.90;;
23410;SDS011;11878;51.774;7.220;2023-05-25T04:37:05;13.23;;;4.17;;
23410;SDS011;11878;51.774;7.220;2023-05-25T04:43:47;7.87;;;3.90;;
23410;SDS011;11878;51.774;7.220;2023-05-25T04:57:40;11.20;;;3.80;;
23410;SDS011;11878;51.774;7.220;2023-05-25T05:00:42;11.50;;;3.83;;
23410;SDS011;11878;51.774;7.220;2023-05-25T05:03:44;12.10;;;4.20;;
23410;SDS011;11878;51.774;7.220;2023-05-25T05:14:03;10.67;;;4.03;;
23410;SDS011;11878;51.774;7.220;2023-05-25T05:17:05;9.67;;;4.07;;
23410;SDS011;11878;51.774;7.220;2023-05-25T05:20:07;14.70;;;3.53;;
23410;SDS011;11878;51.774;7.220;2023-05-25T05:47:31;11.03;;;4.00;;
23410;SDS011;11878;51.774;7.220;2023-05-25T05:50:33;10.97;;;4.03;;
23410;SDS011;11878;51.774;7.220;2023-05-25T05:56:59;11.17;;;4.20;;
23410;SDS011;11878;51.774;7.220;2023-05-25T06:42:23;9.53;;;3.87;;
23410;SDS011;11878;51.774;7.220;2023-05-25T06:45:29;9.37;;;3.37;;
23410;SDS011;11878;51.774;7.220;2023-05-25T07:06:01;11.23;;;3.97;;
23410;SDS011;11878;51.774;7.220;2023-05-25T07:12:40;11.10;;;4.93;;
23410;SDS011;11878;51.774;7.220;2023-05-25T07:15:42;11.30;;;4.30;;
23410;SDS011;11878;51.774;7.220;2023-05-25T07:18:44;11.50;;;4.80;;
23410;SDS011;11878;51.774;7.220;2023-05-25T07:25:11;11.30;;;4.63;;
23410;SDS011;11878;51.774;7.220;2023-05-25T07:28:13;13.67;;;4.87;;
23410;SDS011;11878;51.774;7.220;2023-05-25T07:31:14;8.40;;;4.90;;
23410;SDS011;11878;51.774;7.220;2023-05-25T07:37:58;10.30;;;4.60;;
23410;SDS011;11878;51.774;7.220;2023-05-25T07:41:01;12.70;;;4.90;;
23410;SDS011;11878;51.774;7.220;2023-05-25T07:44:04;10.60;;;4.30;;
23410;SDS011;11878;51.774;7.220;2023-05-25T07:47:06;12.57;;;4.00;;
23410;SDS011;11878;51.774;7.220;2023-05-25T07:54:20;10.70;;;4.70;;
23410;SDS011;11878;51.774;7.220;2023-05-25T07:57:22;10.70;;;5.00;;
23410;SDS011;11878;51.774;7.220;2023-05-25T08:00:23;13.13;;;4.47;;
23410;SDS011;11878;51.774;7.220;2023-05-25T08:17:57;11.40;;;5.00;;
23410;SDS011;11878;51.774;7.220;2023-05-25T08:20:59;8.57;;;4.00;;
23410;SDS011;11878;51.774;7.220;2023-05-25T08:35:21;8.00;;;3.77;;
23410;SDS011;11878;51.774;7.220;2023-05-25T09:03:18;14.43;;;4.20;;
23410;SDS011;11878;51.774;7.220;2023-05-25T09:13:36;7.57;;;3.60;;
23410;SDS011;11878;51.774;7.220;2023-05-25T09:16:39;12.00;;;3.87;;
23410;SDS011;11878;51.774;7.220;2023-05-25T09:19:51;10.70;;;4.00;;
23410;SDS011;11878;51.774;7.220;2023-05-25T09:22:53;10.00;;;4.27;;
23410;SDS011;11878;51.774;7.220;2023-05-25T09:40:54;10.67;;;3.50;;
23410;SDS011;11878;51.774;7.220;2023-05-25T09:43:56;15.33;;;4.57;;
23410;SDS011;11878;51.774;7.220;2023-05-25T10:05:14;10.83;;;3.20;;
23410;SDS011;11878;51.774;7.220;2023-05-25T10:22:26;9.73;;;3.13;;
23410;SDS011;11878;51.774;7.220;2023-05-25T10:25:41;12.63;;;3.87;;
23410;SDS011;11878;51.774;7.220;2023-05-25T10:28:49;8.07;;;3.07;;
23410;SDS011;11878;51.774;7.220;2023-05-25T10:35:30;8.67;;;2.60;;
23410;SDS011;11878;51.774;7.220;2023-05-25T10:42:22;9.80;;;3.10;;
23410;SDS011;11878;51.774;7.220;2023-05-25T10:45:38;9.33;;;3.27;;
23410;SDS011;11878;51.774;7.220;2023-05-25T10:48:45;10.00;;;2.67;;
23410;SDS011;11878;51.774;7.220;2023-05-25T10:51:56;10.93;;;2.83;;
23410;SDS011;11878;51.774;7.220;2023-05-25T10:55:02;6.33;;;2.23;;
23410;SDS011;11878;51.774;7.220;2023-05-25T11:12:39;8.43;;;2.50;;
23410;SDS011;11878;51.774;7.220;2023-05-25T11:36:40;9.07;;;2.07;;
23410;SDS011;11878;51.774;7.220;2023-05-25T11:39:45;7.97;;;2.20;;
23410;SDS011;11878;51.774;7.220;2023-05-25T11:42:48;8.53;;;2.20;;
23410;SDS011;11878;51.774;7.220;2023-05-25T11:45:56;5.67;;;2.13;;
23410;SDS011;11878;51.774;7.220;2023-05-25T11:48:58;6.17;;;2.00;;
23410;SDS011;11878;51.774;7.220;2023-05-25T11:52:03;8.90;;;2.20;;
23410;SDS011;11878;51.774;7.220;2023-05-25T12:05:51;9.93;;;2.53;;
23410;SDS011;11878;51.774;7.220;2023-05-25T12:16:08;8.07;;;2.10;;
23410;SDS011;11878;51.774;7.220;2023-05-25T12:19:10;7.73;;;2.27;;
23410;SDS011;11878;51.774;7.220;2023-05-25T12:26:04;7.20;;;2.70;;
23410;SDS011;11878;51.774;7.220;2023-05-25T12:29:13;4.63;;;1.90;;
23410;SDS011;11878;51.774;7.220;2023-05-25T12:42:55;5.10;;;1.90;;
23410;SDS011;11878;51.774;7.220;2023-05-25T12:45:57;5.13;;;1.70;;
23410;SDS011;11878;51.774;7.220;2023-05-25T12:56:20;9.90;;;2.20;;
23410;SDS011;11878;51.774;7.220;2023-05-25T13:09:55;8.60;;;1.90;;
23410;SDS011;11878;51.774;7.220;2023-05-25T13:30:48;8.63;;;1.77;;
23410;SDS011;11878;51.774;7.220;2023-05-25T13:33:50;8.67;;;2.27;;
23410;SDS011;11878;51.774;7.220;2023-05-25T13:36:52;7.67;;;2.07;;
23410;SDS011;11878;51.774;7.220;2023-05-25T13:39:54;6.07;;;1.80;;
23410;SDS011;11878;51.774;7.220;2023-05-25T14:01:06;10.93;;;1.83;;
23410;SDS011;11878;51.774;7.220;2023-05-25T14:17:58;7.00;;;2.23;;
23410;SDS011;11878;51.774;7.220;2023-05-25T14:21:00;11.00;;;2.57;;
23410;SDS011;11878;51.774;7.220;2023-05-25T14:24:02;7.93;;;2.53;;
23410;SDS011;11878;51.774;7.220;2023-05-25T14:38:00;6.53;;;2.00;;
23410;SDS011;11878;51.774;7.220;2023-05-25T15:12:42;8.63;;;1.87;;
23410;SDS011;11878;51.774;7.220;2023-05-25T15:15:44;16.07;;;2.30;;
23410;SDS011;11878;51.774;7.220;2023-05-25T15:29:19;8.27;;;2.55;;
23410;SDS011;11878;51.774;7.220;2023-05-25T15:46:56;11.07;;;2.33;;
23410;SDS011;11878;51.774;7.220;2023-05-25T15:53:31;12.90;;;3.10;;
23410;SDS011;11878;51.774;7.220;2023-05-25T16:11:10;9.53;;;2.63;;
23410;SDS011;11878;51.774;7.220;2023-05-25T16:42:13;15.03;;;2.40;;
23410;SDS011;11878;51.774;7.220;2023-05-25T16:56:14;16.07;;;3.13;;
23410;SDS011;11878;51.774;7.220;2023-05-25T16:59:16;11.10;;;2.30;;
23410;SDS011;11878;51.774;7.220;2023-05-25T17:02:17;11.70;;;3.00;;
23410;SDS011;11878;51.774;7.220;2023-05-25T17:05:19;13.30;;;3.00;;
23410;SDS011;11878;51.774;7.220;2023-05-25T17:11:59;9.60;;;2.20;;
23410;SDS011;11878;51.774;7.220;2023-05-25T17:18:33;12.60;;;2.97;;
23410;SDS011;11878;51.774;7.220;2023-05-25T17:50:44;10.63;;;2.53;;
23410;SDS011;11878;51.774;7.220;2023-05-25T18:07:50;11.13;;;3.10;;
23410;SDS011;11878;51.774;7.220;2023-05-25T18:10:55;14.20;;;3.17;;
23410;SDS011;11878;51.774;7.220;2023-05-25T18:20:57;15.90;;;2.50;;
23410;SDS011;11878;51.774;7.220;2023-05-25T18:23:59;14.97;;;2.93;;
23410;SDS011;11878;51.774;7.220;2023-05-25T18:30:32;22.83;;;3.17;;
23410;SDS011;11878;51.774;7.220;2023-05-25T18:33:33;20.50;;;2.90;;
23410;SDS011;11878;51.774;7.220;2023-05-25T18:47:25;13.13;;;3.57;;
23410;SDS011;11878;51.774;7.220;2023-05-25T18:50:27;11.83;;;2.80;;
23410;SDS011;11878;51.774;7.220;2023-05-25T18:53:29;13.97;;;2.87;;
23410;SDS011;11878;51.774;7.220;2023-05-25T18:56:31;12.57;;;2.37;;
23410;SDS011;11878;51.774;7.220;2023-05-25T18:59:32;15.30;;;3.00;;
23410;SDS011;11878;51.774;7.220;2023-05-25T19:02:34;14.43;;;2.37;;
23410;SDS011;11878;51.774;7.220;2023-05-25T19:05:37;17.10;;;3.20;;
23410;SDS011;11878;51.774;7.220;2023-05-25T19:08:39;15.17;;;2.80;;
23410;SDS011;11878;51.774;7.220;2023-05-25T19:11:41;14.77;;;3.37;;
23410;SDS011;11878;51.774;7.220;2023-05-25T19:14:42;21.53;;;3.70;;
23410;SDS011;11878;51.774;7.220;2023-05-25T19:17:44;13.07;;;2.53;;
23410;SDS011;11878;51.774;7.220;2023-05-25T19:20:47;14.37;;;2.70;;
23410;SDS011;11878;51.774;7.220;2023-05-25T19:23:49;15.23;;;2.97;;
23410;SDS011;11878;51.774;7.220;2023-05-25T19:26:54;15.70;;;2.80;;
23410;SDS011;11878;51.774;7.220;2023-05-25T19:29:56;19.40;;;3.37;;
23410;SDS011;11878;51.774;7.220;2023-05-25T19:32:59;12.40;;;2.63;;
23410;SDS011;11878;51.774;7.220;2023-05-25T19:36:01;13.83;;;2.73;;
23410;SDS011;11878;51.774;7.220;2023-05-25T19:39:03;17.03;;;3.10;;
23410;SDS011;11878;51.774;7.220;2023-05-25T19:42:05;15.33;;;2.77;;
23410;SDS011;11878;51.774;7.220;2023-05-25T19:45:07;19.63;;;4.07;;
23410;SDS011;11878;51.774;7.220;2023-05-25T20:05:51;15.43;;;2.70;;
23410;SDS011;11878;51.774;7.220;2023-05-25T20:12:32;11.60;;;2.90;;
23410;SDS011;11878;51.774;7.220;2023-05-25T20:15:35;18.60;;;3.97;;
23410;SDS011;11878;51.774;7.220;2023-05-25T20:18:40;17.30;;;3.43;;
23410;SDS011;11878;51.774;7.220;2023-05-25T20:28:28;21.33;;;3.03;;
23410;SDS011;11878;51.774;7.220;2023-05-25T20:31:30;18.87;;;3.40;;
23410;SDS011;11878;51.774;7.220;2023-05-25T20:34:32;20.07;;;3.40;;
23410;SDS011;11878;51.774;7.220;2023-05-25T20:44:50;17.90;;;3.17;;
23410;SDS011;11878;51.774;7.220;2023-05-25T20:54:54;18.97;;;3.53;;
23410;SDS011;11878;51.774;7.220;2023-05-25T20:57:55;13.73;;;3.00;;
23410;SDS011;11878;51.774;7.220;2023-05-25T21:00:59;22.43;;;3.43;;
23410;SDS011;11878;51.774;7.220;2023-05-25T21:04:01;16.73;;;2.83;;
23410;SDS011;11878;51.774;7.220;2023-05-25T21:07:03;20.83;;;3.27;;
23410;SDS011;11878;51.774;7.220;2023-05-25T21:10:05;19.40;;;3.73;;
23410;SDS011;11878;51.774;7.220;2023-05-25T21:16:48;15.43;;;3.03;;
23410;SDS011;11878;51.774;7.220;2023-05-25T21:30:18;13.13;;;2.70;;
23410;SDS011;11878;51.774;7.220;2023-05-25T21:33:24;14.60;;;2.87;;
23410;SDS011;11878;51.774;7.220;2023-05-25T21:36:26;15.57;;;2.63;;
23410;SDS011;11878;51.774;7.220;2023-05-25T21:39:27;22.70;;;3.80;;
23410;SDS011;11878;51.774;7.220;2023-05-25T21:42:29;15.47;;;3.13;;
23410;SDS011;11878;51.774;7.220;2023-05-25T21:45:31;18.77;;;3.30;;
23410;SDS011;11878;51.774;7.220;2023-05-25T21:48:33;16.13;;;3.20;;
23410;SDS011;11878;51.774;7.220;2023-05-25T21:51:34;23.80;;;3.30;;
23410;SDS011;11878;51.774;7.220;2023-05-25T21:54:36;18.47;;;2.83;;
23410;SDS011;11878;51.774;7.220;2023-05-25T21:57:39;22.77;;;3.80;;
23410;SDS011;11878;51.774;7.220;2023-05-25T22:00:40;16.37;;;3.60;;
23410;SDS011;11878;51.774;7.220;2023-05-25T22:03:42;19.43;;;3.30;;
23410;SDS011;11878;51.774;7.220;2023-05-25T22:06:44;14.83;;;3.17;;
23410;SDS011;11878;51.774;7.220;2023-05-25T22:09:46;18.80;;;2.83;;
23410;SDS011;11878;51.774;7.220;2023-05-25T22:12:48;22.50;;;3.63;;
23410;SDS011;11878;51.774;7.220;2023-05-25T22:15:50;17.70;;;3.00;;
23410;SDS011;11878;51.774;7.220;2023-05-25T22:18:51;17.63;;;4.17;;
23410;SDS011;11878;51.774;7.220;2023-05-25T22:21:53;22.97;;;3.40;;
23410;SDS011;11878;51.774;7.220;2023-05-25T22:24:55;19.10;;;2.60;;
23410;SDS011;11878;51.774;7.220;2023-05-25T22:27:57;17.07;;;3.67;;
23410;SDS011;11878;51.774;7.220;2023-05-25T22:30:58;13.47;;;1.97;;
23410;SDS011;11878;51.774;7.220;2023-05-25T22:34:00;16.07;;;2.77;;
23410;SDS011;11878;51.774;7.220;2023-05-25T22:37:02;19.50;;;2.83;;
23410;SDS011;11878;51.774;7.220;2023-05-25T22:40:04;26.37;;;2.83;;
23410;SDS011;11878;51.774;7.220;2023-05-25T22:43:07;18.13;;;2.73;;
23410;SDS011;11878;51.774;7.220;2023-05-25T22:46:12;17.23;;;2.97;;
23410;SDS011;11878;51.774;7.220;2023-05-25T22:49:14;23.03;;;3.17;;
23410;SDS011;11878;51.774;7.220;2023-05-25T22:52:16;17.63;;;2.63;;
23410;SDS011;11878;51.774;7.220;2023-05-25T22:55:18;18.90;;;3.00;;
23410;SDS011;11878;51.774;7.220;2023-05-25T22:58:20;18.37;;;3.70;;
23410;SDS011;11878;51.774;7.220;2023-05-25T23:01:22;14.43;;;2.37;;
23410;SDS011;11878;51.774;7.220;2023-05-25T23:04:24;18.63;;;2.57;;
23410;SDS011;11878;51.774;7.220;2023-05-25T23:07:26;17.60;;;3.43;;
23410;SDS011;11878;51.774;7.220;2023-05-25T23:10:28;22.03;;;3.53;;
23410;SDS011;11878;51.774;7.220;2023-05-25T23:13:29;16.87;;;2.80;;
23410;SDS011;11878;51.774;7.220;2023-05-25T23:16:32;16.40;;;2.63;;
23410;SDS011;11878;51.774;7.220;2023-05-25T23:19:34;16.40;;;2.43;;
23410;SDS011;11878;51.774;7.220;2023-05-25T23:22:36;15.80;;;2.43;;
23410;SDS011;11878;51.774;7.220;2023-05-25T23:25:38;16.60;;;2.70;;
23410;SDS011;11878;51.774;7.220;2023-05-25T23:28:40;18.23;;;2.90;;
23410;SDS011;11878;51.774;7.220;2023-05-25T23:31:41;15.03;;;2.63;;
23410;SDS011;11878;51.774;7.220;2023-05-25T23:34:43;20.80;;;3.63;;
23410;SDS011;11878;51.774;7.220;2023-05-25T23:37:45;19.43;;;3.07;;
23410;SDS011;11878;51.774;7.220;2023-05-25T23:40:47;23.17;;;3.17;;
23410;SDS011;11878;51.774;7.220;2023-05-25T23:43:49;20.53;;;3.80;;
23410;SDS011;11878;51.774;7.220;2023-05-25T23:46:51;11.40;;;2.40;;
23410;SDS011;11878;51.774;7.220;2023-05-25T23:49:53;20.23;;;3.07;;
23410;SDS011;11878;51.774;7.220;2023-05-25T23:52:54;21.67;;;2.67;;
23410;SDS011;11878;51.774;7.220;2023-05-25T23:55:56;19.40;;;3.07;;
23410;SDS011;11878;51.774;7.220;2023-05-25T23:58:58;20.13;;;2.63;;
